Terminal Aerodrome Forecast
Issued by NWS Albany, NY

Home | Current Version | Previous Version | Text Only | Print | Product List | Glossary On
Versions: 1 2 3 4 5 6 7 8 9 10 11 12 13 14 15 16 17 18 19 20 21 22 23 24
000
FTUS41 KALY 100800 AAA
TAFPOU
TAF AMD
KPOU 100823Z 1008/1106 VRB03KT 6SM BR SCT004
      TEMPO 1008/1012 1 1/2SM BR BKN004
     FM101200 01005KT P6SM SCT035 BKN200
     FM101600 34007KT P6SM FEW060 BKN120
     FM102300 VRB03KT P6SM BKN100=

USA.gov is the U.S. government's official web portal to all federal, state and local government web resources and services.